sensor_id;sensor_type;location;lat;lon;timestamp;P1;durP1;ratioP1;P2;durP2;ratioP2
18340;SDS011;9296;48.084;16.352;2023-01-28T00:01:16;34.77;;;15.07;;
18340;SDS011;9296;48.084;16.352;2023-01-28T00:03:43;31.83;;;14.27;;
18340;SDS011;9296;48.084;16.352;2023-01-28T00:06:11;31.70;;;14.57;;
18340;SDS011;9296;48.084;16.352;2023-01-28T00:08:40;30.80;;;14.53;;
18340;SDS011;9296;48.084;16.352;2023-01-28T00:14:11;28.50;;;13.00;;
18340;SDS011;9296;48.084;16.352;2023-01-28T00:16:39;29.40;;;13.33;;
18340;SDS011;9296;48.084;16.352;2023-01-28T00:19:06;29.30;;;13.23;;
18340;SDS011;9296;48.084;16.352;2023-01-28T00:21:33;28.37;;;13.57;;
18340;SDS011;9296;48.084;16.352;2023-01-28T00:24:02;30.50;;;14.10;;
18340;SDS011;9296;48.084;16.352;2023-01-28T00:29:34;29.57;;;13.33;;
18340;SDS011;9296;48.084;16.352;2023-01-28T00:32:01;24.90;;;12.60;;
18340;SDS011;9296;48.084;16.352;2023-01-28T00:34:29;29.93;;;13.57;;
18340;SDS011;9296;48.084;16.352;2023-01-28T00:36:56;28.27;;;13.40;;
18340;SDS011;9296;48.084;16.352;2023-01-28T00:39:25;29.20;;;13.63;;
18340;SDS011;9296;48.084;16.352;2023-01-28T00:44:56;29.60;;;12.97;;
18340;SDS011;9296;48.084;16.352;2023-01-28T00:47:23;27.27;;;13.23;;
18340;SDS011;9296;48.084;16.352;2023-01-28T00:49:50;30.40;;;13.97;;
18340;SDS011;9296;48.084;16.352;2023-01-28T00:52:17;31.40;;;14.73;;
18340;SDS011;9296;48.084;16.352;2023-01-28T00:54:51;31.70;;;14.50;;
18340;SDS011;9296;48.084;16.352;2023-01-28T00:57:19;30.63;;;13.80;;
18340;SDS011;9296;48.084;16.352;2023-01-28T00:59:46;31.13;;;14.23;;
18340;SDS011;9296;48.084;16.352;2023-01-28T01:02:13;31.10;;;14.33;;
18340;SDS011;9296;48.084;16.352;2023-01-28T01:04:41;35.53;;;15.27;;
18340;SDS011;9296;48.084;16.352;2023-01-28T01:07:19;31.70;;;14.17;;
18340;SDS011;9296;48.084;16.352;2023-01-28T01:09:46;31.20;;;14.27;;
18340;SDS011;9296;48.084;16.352;2023-01-28T01:12:14;31.03;;;14.50;;
18340;SDS011;9296;48.084;16.352;2023-01-28T01:14:41;31.80;;;14.50;;
18340;SDS011;9296;48.084;16.352;2023-01-28T01:17:09;31.73;;;14.17;;
18340;SDS011;9296;48.084;16.352;2023-01-28T01:19:36;31.27;;;14.40;;
18340;SDS011;9296;48.084;16.352;2023-01-28T01:22:03;33.50;;;15.30;;
18340;SDS011;9296;48.084;16.352;2023-01-28T01:24:30;31.37;;;15.27;;
18340;SDS011;9296;48.084;16.352;2023-01-28T01:26:58;35.97;;;15.30;;
18340;SDS011;9296;48.084;16.352;2023-01-28T01:29:26;35.37;;;15.47;;
18340;SDS011;9296;48.084;16.352;2023-01-28T01:31:54;34.57;;;15.37;;
18340;SDS011;9296;48.084;16.352;2023-01-28T01:34:21;35.80;;;15.60;;
18340;SDS011;9296;48.084;16.352;2023-01-28T01:36:48;32.23;;;15.03;;
18340;SDS011;9296;48.084;16.352;2023-01-28T01:39:15;36.57;;;15.53;;
18340;SDS011;9296;48.084;16.352;2023-01-28T01:41:42;33.53;;;15.10;;
18340;SDS011;9296;48.084;16.352;2023-01-28T01:46:53;31.77;;;15.03;;
18340;SDS011;9296;48.084;16.352;2023-01-28T01:49:21;30.47;;;14.60;;
18340;SDS011;9296;48.084;16.352;2023-01-28T01:51:50;33.10;;;15.20;;
18340;SDS011;9296;48.084;16.352;2023-01-28T01:54:18;34.03;;;15.73;;
18340;SDS011;9296;48.084;16.352;2023-01-28T01:56:47;34.87;;;15.87;;
18340;SDS011;9296;48.084;16.352;2023-01-28T01:59:17;31.67;;;15.23;;
18340;SDS011;9296;48.084;16.352;2023-01-28T02:01:46;33.47;;;15.70;;
18340;SDS011;9296;48.084;16.352;2023-01-28T02:04:16;32.73;;;15.50;;
18340;SDS011;9296;48.084;16.352;2023-01-28T02:06:45;36.10;;;14.93;;
18340;SDS011;9296;48.084;16.352;2023-01-28T02:09:23;33.43;;;15.43;;
18340;SDS011;9296;48.084;16.352;2023-01-28T02:14:55;32.80;;;15.00;;
18340;SDS011;9296;48.084;16.352;2023-01-28T02:17:24;32.10;;;15.40;;
18340;SDS011;9296;48.084;16.352;2023-01-28T02:19:55;33.10;;;15.23;;
18340;SDS011;9296;48.084;16.352;2023-01-28T02:22:38;34.23;;;15.23;;
18340;SDS011;9296;48.084;16.352;2023-01-28T02:25:16;31.07;;;14.67;;
18340;SDS011;9296;48.084;16.352;2023-01-28T02:27:54;34.47;;;14.50;;
18340;SDS011;9296;48.084;16.352;2023-01-28T02:30:24;32.40;;;15.13;;
18340;SDS011;9296;48.084;16.352;2023-01-28T02:32:55;33.37;;;14.60;;
18340;SDS011;9296;48.084;16.352;2023-01-28T02:35:24;31.53;;;15.70;;
18340;SDS011;9296;48.084;16.352;2023-01-28T02:37:57;35.63;;;16.03;;
18340;SDS011;9296;48.084;16.352;2023-01-28T02:46:34;37.43;;;16.00;;
18340;SDS011;9296;48.084;16.352;2023-01-28T02:49:21;31.47;;;14.43;;
18340;SDS011;9296;48.084;16.352;2023-01-28T02:51:52;33.77;;;15.40;;
18340;SDS011;9296;48.084;16.352;2023-01-28T02:54:25;32.97;;;15.30;;
18340;SDS011;9296;48.084;16.352;2023-01-28T03:00:00;36.67;;;15.93;;
18340;SDS011;9296;48.084;16.352;2023-01-28T03:02:32;33.47;;;14.90;;
18340;SDS011;9296;48.084;16.352;2023-01-28T03:05:02;33.97;;;15.13;;
18340;SDS011;9296;48.084;16.352;2023-01-28T03:07:30;33.80;;;15.43;;
18340;SDS011;9296;48.084;16.352;2023-01-28T03:10:00;35.13;;;16.00;;
18340;SDS011;9296;48.084;16.352;2023-01-28T03:12:28;32.33;;;14.70;;
18340;SDS011;9296;48.084;16.352;2023-01-28T03:15:15;40.70;;;15.40;;
18340;SDS011;9296;48.084;16.352;2023-01-28T03:18:03;36.67;;;15.50;;
18340;SDS011;9296;48.084;16.352;2023-01-28T03:20:49;34.20;;;14.60;;
18340;SDS011;9296;48.084;16.352;2023-01-28T03:23:36;37.43;;;15.40;;
18340;SDS011;9296;48.084;16.352;2023-01-28T03:29:25;37.20;;;15.53;;
18340;SDS011;9296;48.084;16.352;2023-01-28T03:32:11;34.00;;;15.27;;
18340;SDS011;9296;48.084;16.352;2023-01-28T03:34:58;35.83;;;15.60;;
18340;SDS011;9296;48.084;16.352;2023-01-28T03:37:42;35.93;;;15.87;;
18340;SDS011;9296;48.084;16.352;2023-01-28T03:46:16;38.23;;;17.20;;
18340;SDS011;9296;48.084;16.352;2023-01-28T03:48:44;37.87;;;15.93;;
18340;SDS011;9296;48.084;16.352;2023-01-28T03:51:12;35.73;;;15.83;;
18340;SDS011;9296;48.084;16.352;2023-01-28T03:53:41;38.27;;;16.47;;
18340;SDS011;9296;48.084;16.352;2023-01-28T03:59:01;35.00;;;15.70;;
18340;SDS011;9296;48.084;16.352;2023-01-28T04:01:28;35.03;;;15.63;;
18340;SDS011;9296;48.084;16.352;2023-01-28T04:03:55;37.37;;;15.80;;
18340;SDS011;9296;48.084;16.352;2023-01-28T04:06:24;34.47;;;16.10;;
18340;SDS011;9296;48.084;16.352;2023-01-28T04:08:52;37.00;;;16.83;;
18340;SDS011;9296;48.084;16.352;2023-01-28T04:11:23;37.00;;;16.60;;
18340;SDS011;9296;48.084;16.352;2023-01-28T04:13:50;38.47;;;16.93;;
18340;SDS011;9296;48.084;16.352;2023-01-28T04:16:18;35.50;;;16.40;;
18340;SDS011;9296;48.084;16.352;2023-01-28T04:18:45;36.53;;;17.23;;
18340;SDS011;9296;48.084;16.352;2023-01-28T04:21:13;36.17;;;16.20;;
18340;SDS011;9296;48.084;16.352;2023-01-28T04:23:41;36.87;;;17.50;;
18340;SDS011;9296;48.084;16.352;2023-01-28T04:26:08;35.70;;;15.67;;
18340;SDS011;9296;48.084;16.352;2023-01-28T04:28:36;36.50;;;16.40;;
18340;SDS011;9296;48.084;16.352;2023-01-28T04:31:03;40.57;;;17.87;;
18340;SDS011;9296;48.084;16.352;2023-01-28T04:33:30;37.00;;;17.07;;
18340;SDS011;9296;48.084;16.352;2023-01-28T04:35:57;38.47;;;16.20;;
18340;SDS011;9296;48.084;16.352;2023-01-28T04:38:24;39.43;;;17.07;;
18340;SDS011;9296;48.084;16.352;2023-01-28T04:40:53;38.23;;;16.80;;
18340;SDS011;9296;48.084;16.352;2023-01-28T04:43:20;37.53;;;16.70;;
18340;SDS011;9296;48.084;16.352;2023-01-28T04:45:47;37.67;;;16.27;;
18340;SDS011;9296;48.084;16.352;2023-01-28T04:48:15;35.67;;;16.30;;
18340;SDS011;9296;48.084;16.352;2023-01-28T04:50:43;36.80;;;16.20;;
18340;SDS011;9296;48.084;16.352;2023-01-28T04:53:10;35.20;;;16.30;;
18340;SDS011;9296;48.084;16.352;2023-01-28T05:01:47;40.67;;;17.60;;
18340;SDS011;9296;48.084;16.352;2023-01-28T05:04:14;41.60;;;17.33;;
18340;SDS011;9296;48.084;16.352;2023-01-28T05:06:41;42.27;;;17.13;;
18340;SDS011;9296;48.084;16.352;2023-01-28T05:09:08;37.80;;;17.07;;
18340;SDS011;9296;48.084;16.352;2023-01-28T05:11:36;38.60;;;17.47;;
18340;SDS011;9296;48.084;16.352;2023-01-28T05:14:03;38.20;;;16.43;;
18340;SDS011;9296;48.084;16.352;2023-01-28T05:16:30;42.97;;;16.97;;
18340;SDS011;9296;48.084;16.352;2023-01-28T05:19:00;34.60;;;15.57;;
18340;SDS011;9296;48.084;16.352;2023-01-28T05:21:27;42.47;;;16.87;;
18340;SDS011;9296;48.084;16.352;2023-01-28T05:23:54;39.60;;;15.80;;
18340;SDS011;9296;48.084;16.352;2023-01-28T05:26:22;39.60;;;17.07;;
18340;SDS011;9296;48.084;16.352;2023-01-28T05:28:49;40.83;;;17.63;;
18340;SDS011;9296;48.084;16.352;2023-01-28T05:31:16;38.57;;;17.20;;
18340;SDS011;9296;48.084;16.352;2023-01-28T05:33:43;38.53;;;16.77;;
18340;SDS011;9296;48.084;16.352;2023-01-28T05:36:12;40.93;;;17.97;;
18340;SDS011;9296;48.084;16.352;2023-01-28T05:38:39;37.60;;;16.73;;
18340;SDS011;9296;48.084;16.352;2023-01-28T05:41:06;42.70;;;17.37;;
18340;SDS011;9296;48.084;16.352;2023-01-28T05:43:34;41.17;;;16.60;;
18340;SDS011;9296;48.084;16.352;2023-01-28T05:46:01;42.53;;;17.13;;
18340;SDS011;9296;48.084;16.352;2023-01-28T05:48:28;40.50;;;17.07;;
18340;SDS011;9296;48.084;16.352;2023-01-28T05:50:55;37.93;;;17.07;;
18340;SDS011;9296;48.084;16.352;2023-01-28T05:53:24;46.27;;;18.20;;
18340;SDS011;9296;48.084;16.352;2023-01-28T05:55:52;38.57;;;17.07;;
18340;SDS011;9296;48.084;16.352;2023-01-28T05:58:19;35.93;;;15.67;;
18340;SDS011;9296;48.084;16.352;2023-01-28T06:00:46;37.53;;;16.80;;
18340;SDS011;9296;48.084;16.352;2023-01-28T06:03:14;42.10;;;15.73;;
18340;SDS011;9296;48.084;16.352;2023-01-28T06:05:41;39.13;;;17.43;;
18340;SDS011;9296;48.084;16.352;2023-01-28T06:08:08;37.87;;;16.63;;
18340;SDS011;9296;48.084;16.352;2023-01-28T06:10:37;38.07;;;15.90;;
18340;SDS011;9296;48.084;16.352;2023-01-28T06:13:04;36.07;;;16.10;;
18340;SDS011;9296;48.084;16.352;2023-01-28T06:15:32;39.13;;;16.63;;
18340;SDS011;9296;48.084;16.352;2023-01-28T06:18:00;38.60;;;16.17;;
18340;SDS011;9296;48.084;16.352;2023-01-28T06:20:27;35.90;;;15.90;;
18340;SDS011;9296;48.084;16.352;2023-01-28T06:22:54;37.70;;;16.80;;
18340;SDS011;9296;48.084;16.352;2023-01-28T06:25:22;36.57;;;15.23;;
18340;SDS011;9296;48.084;16.352;2023-01-28T06:27:50;35.57;;;16.13;;
18340;SDS011;9296;48.084;16.352;2023-01-28T06:30:17;36.40;;;16.07;;
18340;SDS011;9296;48.084;16.352;2023-01-28T06:32:45;34.60;;;14.73;;
18340;SDS011;9296;48.084;16.352;2023-01-28T06:35:12;36.77;;;15.27;;
18340;SDS011;9296;48.084;16.352;2023-01-28T06:37:39;32.43;;;15.27;;
18340;SDS011;9296;48.084;16.352;2023-01-28T06:40:07;33.77;;;14.77;;
18340;SDS011;9296;48.084;16.352;2023-01-28T06:42:35;34.00;;;14.60;;
18340;SDS011;9296;48.084;16.352;2023-01-28T06:45:04;33.73;;;13.70;;
18340;SDS011;9296;48.084;16.352;2023-01-28T06:47:31;33.60;;;14.83;;
18340;SDS011;9296;48.084;16.352;2023-01-28T06:49:58;34.03;;;15.43;;
18340;SDS011;9296;48.084;16.352;2023-01-28T06:52:26;31.10;;;14.40;;
18340;SDS011;9296;48.084;16.352;2023-01-28T06:54:53;35.67;;;14.93;;
18340;SDS011;9296;48.084;16.352;2023-01-28T06:57:20;34.47;;;14.50;;
18340;SDS011;9296;48.084;16.352;2023-01-28T06:59:47;32.23;;;15.00;;
18340;SDS011;9296;48.084;16.352;2023-01-28T07:02:16;34.03;;;14.40;;
18340;SDS011;9296;48.084;16.352;2023-01-28T07:04:43;39.60;;;15.17;;
18340;SDS011;9296;48.084;16.352;2023-01-28T07:07:10;34.57;;;14.83;;
18340;SDS011;9296;48.084;16.352;2023-01-28T07:09:38;30.93;;;14.50;;
18340;SDS011;9296;48.084;16.352;2023-01-28T07:15:09;33.27;;;14.83;;
18340;SDS011;9296;48.084;16.352;2023-01-28T07:17:39;34.27;;;15.33;;
18340;SDS011;9296;48.084;16.352;2023-01-28T07:20:06;33.47;;;15.50;;
18340;SDS011;9296;48.084;16.352;2023-01-28T07:22:34;35.83;;;15.37;;
18340;SDS011;9296;48.084;16.352;2023-01-28T07:25:03;34.37;;;16.07;;
18340;SDS011;9296;48.084;16.352;2023-01-28T07:30:34;33.53;;;15.93;;
18340;SDS011;9296;48.084;16.352;2023-01-28T07:33:03;35.67;;;15.13;;
18340;SDS011;9296;48.084;16.352;2023-01-28T07:35:30;36.33;;;15.33;;
18340;SDS011;9296;48.084;16.352;2023-01-28T07:37:58;38.53;;;16.47;;
18340;SDS011;9296;48.084;16.352;2023-01-28T07:40:26;35.23;;;15.77;;
18340;SDS011;9296;48.084;16.352;2023-01-28T07:42:53;36.97;;;16.60;;
18340;SDS011;9296;48.084;16.352;2023-01-28T07:45:21;40.17;;;16.93;;
18340;SDS011;9296;48.084;16.352;2023-01-28T07:47:52;39.67;;;16.30;;
18340;SDS011;9296;48.084;16.352;2023-01-28T07:50:21;35.93;;;16.10;;
18340;SDS011;9296;48.084;16.352;2023-01-28T07:52:48;33.27;;;16.37;;
18340;SDS011;9296;48.084;16.352;2023-01-28T07:55:15;43.17;;;16.63;;
18340;SDS011;9296;48.084;16.352;2023-01-28T07:57:50;33.93;;;15.63;;
18340;SDS011;9296;48.084;16.352;2023-01-28T08:00:17;37.27;;;15.83;;
18340;SDS011;9296;48.084;16.352;2023-01-28T08:02:45;38.20;;;16.97;;
18340;SDS011;9296;48.084;16.352;2023-01-28T08:05:16;37.73;;;15.20;;
18340;SDS011;9296;48.084;16.352;2023-01-28T08:07:46;35.40;;;15.67;;
18340;SDS011;9296;48.084;16.352;2023-01-28T08:10:13;35.93;;;15.10;;
18340;SDS011;9296;48.084;16.352;2023-01-28T08:18:48;35.10;;;15.63;;
18340;SDS011;9296;48.084;16.352;2023-01-28T08:21:15;35.77;;;15.17;;
18340;SDS011;9296;48.084;16.352;2023-01-28T08:23:44;31.53;;;14.70;;
18340;SDS011;9296;48.084;16.352;2023-01-28T08:26:29;31.97;;;14.57;;
18340;SDS011;9296;48.084;16.352;2023-01-28T08:28:56;35.53;;;15.30;;
18340;SDS011;9296;48.084;16.352;2023-01-28T08:31:23;37.23;;;15.60;;
18340;SDS011;9296;48.084;16.352;2023-01-28T08:33:51;31.53;;;15.20;;
18340;SDS011;9296;48.084;16.352;2023-01-28T08:36:18;29.77;;;14.10;;
18340;SDS011;9296;48.084;16.352;2023-01-28T08:38:47;34.97;;;15.40;;
18340;SDS011;9296;48.084;16.352;2023-01-28T08:44:21;30.53;;;14.73;;
18340;SDS011;9296;48.084;16.352;2023-01-28T08:46:48;29.10;;;14.33;;
18340;SDS011;9296;48.084;16.352;2023-01-28T08:49:16;25.80;;;13.70;;
18340;SDS011;9296;48.084;16.352;2023-01-28T08:51:46;30.77;;;13.97;;
18340;SDS011;9296;48.084;16.352;2023-01-28T08:54:15;31.00;;;14.17;;
18340;SDS011;9296;48.084;16.352;2023-01-28T08:59:45;30.87;;;13.93;;
18340;SDS011;9296;48.084;16.352;2023-01-28T09:02:13;32.17;;;14.50;;
18340;SDS011;9296;48.084;16.352;2023-01-28T09:04:40;29.53;;;13.20;;
18340;SDS011;9296;48.084;16.352;2023-01-28T09:07:07;32.50;;;14.57;;
18340;SDS011;9296;48.084;16.352;2023-01-28T09:09:36;31.27;;;14.23;;
18340;SDS011;9296;48.084;16.352;2023-01-28T09:12:03;29.60;;;13.77;;
18340;SDS011;9296;48.084;16.352;2023-01-28T09:14:32;28.23;;;13.83;;
18340;SDS011;9296;48.084;16.352;2023-01-28T09:16:59;30.37;;;14.43;;
18340;SDS011;9296;48.084;16.352;2023-01-28T09:19:26;31.17;;;14.70;;
18340;SDS011;9296;48.084;16.352;2023-01-28T09:21:54;29.97;;;14.63;;
18340;SDS011;9296;48.084;16.352;2023-01-28T09:24:21;28.07;;;14.63;;
18340;SDS011;9296;48.084;16.352;2023-01-28T09:30:12;32.03;;;14.53;;
18340;SDS011;9296;48.084;16.352;2023-01-28T09:32:39;31.60;;;16.00;;
18340;SDS011;9296;48.084;16.352;2023-01-28T09:35:07;29.67;;;14.40;;
18340;SDS011;9296;48.084;16.352;2023-01-28T09:37:34;30.90;;;14.20;;
18340;SDS011;9296;48.084;16.352;2023-01-28T09:40:01;26.10;;;14.07;;
18340;SDS011;9296;48.084;16.352;2023-01-28T09:45:35;29.27;;;13.93;;
18340;SDS011;9296;48.084;16.352;2023-01-28T09:48:04;28.23;;;14.17;;
18340;SDS011;9296;48.084;16.352;2023-01-28T09:50:33;30.53;;;14.70;;
18340;SDS011;9296;48.084;16.352;2023-01-28T09:53:04;29.97;;;14.27;;
18340;SDS011;9296;48.084;16.352;2023-01-28T09:55:33;31.60;;;13.77;;
18340;SDS011;9296;48.084;16.352;2023-01-28T09:58:04;28.67;;;13.90;;
18340;SDS011;9296;48.084;16.352;2023-01-28T10:00:34;29.00;;;13.73;;
18340;SDS011;9296;48.084;16.352;2023-01-28T10:03:16;27.30;;;12.47;;
18340;SDS011;9296;48.084;16.352;2023-01-28T10:05:49;30.80;;;13.97;;
18340;SDS011;9296;48.084;16.352;2023-01-28T10:08:21;28.40;;;13.57;;
18340;SDS011;9296;48.084;16.352;2023-01-28T10:10:54;26.07;;;13.03;;
18340;SDS011;9296;48.084;16.352;2023-01-28T10:13:37;26.57;;;13.40;;
18340;SDS011;9296;48.084;16.352;2023-01-28T10:16:08;28.43;;;12.57;;
18340;SDS011;9296;48.084;16.352;2023-01-28T10:18:42;27.67;;;12.90;;
18340;SDS011;9296;48.084;16.352;2023-01-28T10:21:10;24.60;;;12.27;;
18340;SDS011;9296;48.084;16.352;2023-01-28T10:23:43;23.67;;;12.70;;
18340;SDS011;9296;48.084;16.352;2023-01-28T10:29:16;27.23;;;12.80;;
18340;SDS011;9296;48.084;16.352;2023-01-28T10:31:46;27.37;;;13.77;;
18340;SDS011;9296;48.084;16.352;2023-01-28T10:34:18;31.00;;;13.17;;
18340;SDS011;9296;48.084;16.352;2023-01-28T10:36:46;29.77;;;13.50;;
18340;SDS011;9296;48.084;16.352;2023-01-28T10:39:13;28.70;;;13.77;;
18340;SDS011;9296;48.084;16.352;2023-01-28T10:47:49;32.40;;;14.57;;
18340;SDS011;9296;48.084;16.352;2023-01-28T10:50:21;28.63;;;13.47;;
18340;SDS011;9296;48.084;16.352;2023-01-28T10:52:52;31.87;;;13.87;;
18340;SDS011;9296;48.084;16.352;2023-01-28T10:55:19;30.63;;;13.50;;
18340;SDS011;9296;48.084;16.352;2023-01-28T10:57:46;29.97;;;13.60;;
18340;SDS011;9296;48.084;16.352;2023-01-28T11:00:21;33.60;;;14.50;;
18340;SDS011;9296;48.084;16.352;2023-01-28T11:02:48;46.47;;;21.53;;
18340;SDS011;9296;48.084;16.352;2023-01-28T11:05:17;33.83;;;20.80;;
18340;SDS011;9296;48.084;16.352;2023-01-28T11:07:46;38.13;;;21.53;;
18340;SDS011;9296;48.084;16.352;2023-01-28T11:10:28;33.63;;;16.60;;
18340;SDS011;9296;48.084;16.352;2023-01-28T11:12:58;30.33;;;14.47;;
18340;SDS011;9296;48.084;16.352;2023-01-28T11:15:26;36.57;;;19.27;;
18340;SDS011;9296;48.084;16.352;2023-01-28T11:17:54;38.20;;;18.77;;
18340;SDS011;9296;48.084;16.352;2023-01-28T11:20:23;39.93;;;22.37;;
18340;SDS011;9296;48.084;16.352;2023-01-28T11:22:53;54.93;;;34.37;;
18340;SDS011;9296;48.084;16.352;2023-01-28T11:25:23;41.57;;;22.70;;
18340;SDS011;9296;48.084;16.352;2023-01-28T11:27:52;40.50;;;21.53;;
18340;SDS011;9296;48.084;16.352;2023-01-28T11:30:20;34.77;;;16.53;;
18340;SDS011;9296;48.084;16.352;2023-01-28T11:32:53;66.80;;;41.67;;
18340;SDS011;9296;48.084;16.352;2023-01-28T11:35:24;52.87;;;28.10;;
18340;SDS011;9296;48.084;16.352;2023-01-28T11:37:54;37.53;;;17.80;;
18340;SDS011;9296;48.084;16.352;2023-01-28T11:40:21;33.87;;;15.57;;
18340;SDS011;9296;48.084;16.352;2023-01-28T11:45:54;37.53;;;17.73;;
18340;SDS011;9296;48.084;16.352;2023-01-28T11:48:27;45.17;;;24.43;;
18340;SDS011;9296;48.084;16.352;2023-01-28T11:50:59;68.73;;;39.00;;
18340;SDS011;9296;48.084;16.352;2023-01-28T11:53:34;46.97;;;28.00;;
18340;SDS011;9296;48.084;16.352;2023-01-28T11:59:17;48.30;;;27.63;;
18340;SDS011;9296;48.084;16.352;2023-01-28T12:01:50;59.57;;;37.83;;
18340;SDS011;9296;48.084;16.352;2023-01-28T12:04:24;44.93;;;26.10;;
18340;SDS011;9296;48.084;16.352;2023-01-28T12:07:00;33.90;;;18.43;;
18340;SDS011;9296;48.084;16.352;2023-01-28T12:09:33;50.77;;;26.50;;
18340;SDS011;9296;48.084;16.352;2023-01-28T12:15:20;44.87;;;27.73;;
18340;SDS011;9296;48.084;16.352;2023-01-28T12:17:53;38.53;;;17.93;;
18340;SDS011;9296;48.084;16.352;2023-01-28T12:20:23;40.87;;;20.03;;
18340;SDS011;9296;48.084;16.352;2023-01-28T12:22:58;39.37;;;23.03;;
18340;SDS011;9296;48.084;16.352;2023-01-28T12:25:37;34.07;;;16.93;;
18340;SDS011;9296;48.084;16.352;2023-01-28T12:31:16;33.17;;;17.07;;
18340;SDS011;9296;48.084;16.352;2023-01-28T12:34:02;36.37;;;17.50;;
18340;SDS011;9296;48.084;16.352;2023-01-28T12:36:34;33.67;;;16.57;;
18340;SDS011;9296;48.084;16.352;2023-01-28T12:39:03;32.23;;;17.77;;
18340;SDS011;9296;48.084;16.352;2023-01-28T12:41:34;27.90;;;13.70;;
18340;SDS011;9296;48.084;16.352;2023-01-28T12:44:04;44.13;;;21.20;;
18340;SDS011;9296;48.084;16.352;2023-01-28T12:46:37;37.00;;;16.83;;
18340;SDS011;9296;48.084;16.352;2023-01-28T12:49:07;28.67;;;15.70;;
18340;SDS011;9296;48.084;16.352;2023-01-28T12:51:39;30.47;;;15.57;;
18340;SDS011;9296;48.084;16.352;2023-01-28T12:54:10;27.47;;;14.07;;
18340;SDS011;9296;48.084;16.352;2023-01-28T12:56:40;26.00;;;14.07;;
18340;SDS011;9296;48.084;16.352;2023-01-28T12:59:10;29.00;;;14.60;;
18340;SDS011;9296;48.084;16.352;2023-01-28T13:01:40;32.90;;;17.50;;
18340;SDS011;9296;48.084;16.352;2023-01-28T13:04:08;28.23;;;14.00;;
18340;SDS011;9296;48.084;16.352;2023-01-28T13:06:40;33.77;;;19.97;;
18340;SDS011;9296;48.084;16.352;2023-01-28T13:09:12;29.77;;;14.53;;
18340;SDS011;9296;48.084;16.352;2023-01-28T13:11:42;28.57;;;14.47;;
18340;SDS011;9296;48.084;16.352;2023-01-28T13:14:10;29.50;;;14.40;;
18340;SDS011;9296;48.084;16.352;2023-01-28T13:16:38;32.40;;;15.37;;
18340;SDS011;9296;48.084;16.352;2023-01-28T13:19:07;30.90;;;15.00;;
18340;SDS011;9296;48.084;16.352;2023-01-28T13:21:35;29.63;;;14.43;;
18340;SDS011;9296;48.084;16.352;2023-01-28T13:24:04;30.90;;;14.17;;
18340;SDS011;9296;48.084;16.352;2023-01-28T13:26:35;30.23;;;14.67;;
18340;SDS011;9296;48.084;16.352;2023-01-28T13:34:56;27.70;;;13.73;;
18340;SDS011;9296;48.084;16.352;2023-01-28T13:37:27;38.80;;;19.40;;
18340;SDS011;9296;48.084;16.352;2023-01-28T13:40:00;28.07;;;14.83;;
18340;SDS011;9296;48.084;16.352;2023-01-28T13:42:28;36.43;;;18.83;;
18340;SDS011;9296;48.084;16.352;2023-01-28T13:45:07;33.63;;;15.53;;
18340;SDS011;9296;48.084;16.352;2023-01-28T13:47:35;27.70;;;13.63;;
18340;SDS011;9296;48.084;16.352;2023-01-28T13:50:05;28.83;;;13.87;;
18340;SDS011;9296;48.084;16.352;2023-01-28T13:52:35;29.50;;;14.07;;
18340;SDS011;9296;48.084;16.352;2023-01-28T13:55:03;31.37;;;14.17;;
18340;SDS011;9296;48.084;16.352;2023-01-28T14:07:00;28.50;;;13.20;;
18340;SDS011;9296;48.084;16.352;2023-01-28T14:09:39;30.27;;;14.07;;
18340;SDS011;9296;48.084;16.352;2023-01-28T14:12:24;32.83;;;13.77;;
18340;SDS011;9296;48.084;16.352;2023-01-28T14:15:06;33.20;;;14.30;;
18340;SDS011;9296;48.084;16.352;2023-01-28T14:17:38;30.50;;;13.77;;
18340;SDS011;9296;48.084;16.352;2023-01-28T14:20:12;32.40;;;14.43;;
18340;SDS011;9296;48.084;16.352;2023-01-28T14:22:42;31.90;;;14.40;;
18340;SDS011;9296;48.084;16.352;2023-01-28T14:25:11;30.27;;;14.23;;
18340;SDS011;9296;48.084;16.352;2023-01-28T14:33:46;35.23;;;15.33;;
18340;SDS011;9296;48.084;16.352;2023-01-28T14:36:13;28.67;;;14.17;;
18340;SDS011;9296;48.084;16.352;2023-01-28T14:38:44;33.27;;;15.17;;
18340;SDS011;9296;48.084;16.352;2023-01-28T14:41:16;33.53;;;15.77;;
18340;SDS011;9296;48.084;16.352;2023-01-28T14:43:46;33.30;;;15.93;;
18340;SDS011;9296;48.084;16.352;2023-01-28T14:46:16;33.93;;;14.80;;
18340;SDS011;9296;48.084;16.352;2023-01-28T14:48:49;33.30;;;14.40;;
18340;SDS011;9296;48.084;16.352;2023-01-28T14:51:23;31.40;;;14.73;;
18340;SDS011;9296;48.084;16.352;2023-01-28T14:56:50;30.07;;;13.97;;
18340;SDS011;9296;48.084;16.352;2023-01-28T14:59:22;33.23;;;14.20;;
18340;SDS011;9296;48.084;16.352;2023-01-28T15:01:53;32.83;;;14.13;;
18340;SDS011;9296;48.084;16.352;2023-01-28T15:04:22;34.40;;;14.53;;
18340;SDS011;9296;48.084;16.352;2023-01-28T15:06:49;30.50;;;13.70;;
18340;SDS011;9296;48.084;16.352;2023-01-28T15:09:17;29.73;;;13.50;;
18340;SDS011;9296;48.084;16.352;2023-01-28T15:11:44;27.87;;;12.93;;
18340;SDS011;9296;48.084;16.352;2023-01-28T15:14:23;29.33;;;13.57;;
18340;SDS011;9296;48.084;16.352;2023-01-28T15:16:51;31.43;;;13.37;;
18340;SDS011;9296;48.084;16.352;2023-01-28T15:19:21;31.00;;;13.47;;
18340;SDS011;9296;48.084;16.352;2023-01-28T15:21:53;27.83;;;12.97;;
18340;SDS011;9296;48.084;16.352;2023-01-28T15:24:20;27.77;;;12.20;;
18340;SDS011;9296;48.084;16.352;2023-01-28T15:26:47;26.67;;;12.63;;
18340;SDS011;9296;48.084;16.352;2023-01-28T15:29:29;28.97;;;12.90;;
18340;SDS011;9296;48.084;16.352;2023-01-28T15:31:57;26.50;;;13.37;;
18340;SDS011;9296;48.084;16.352;2023-01-28T15:34:25;28.60;;;13.63;;
18340;SDS011;9296;48.084;16.352;2023-01-28T15:36:54;30.40;;;13.53;;
18340;SDS011;9296;48.084;16.352;2023-01-28T15:39:22;29.40;;;13.20;;
18340;SDS011;9296;48.084;16.352;2023-01-28T15:41:51;29.33;;;13.07;;
18340;SDS011;9296;48.084;16.352;2023-01-28T15:44:20;29.13;;;13.80;;
18340;SDS011;9296;48.084;16.352;2023-01-28T15:46:54;31.70;;;13.83;;
18340;SDS011;9296;48.084;16.352;2023-01-28T15:49:22;29.47;;;13.97;;
18340;SDS011;9296;48.084;16.352;2023-01-28T15:51:52;29.87;;;14.13;;
18340;SDS011;9296;48.084;16.352;2023-01-28T15:54:19;32.67;;;15.03;;
18340;SDS011;9296;48.084;16.352;2023-01-28T15:56:47;29.57;;;14.47;;
18340;SDS011;9296;48.084;16.352;2023-01-28T15:59:16;33.03;;;14.57;;
18340;SDS011;9296;48.084;16.352;2023-01-28T16:01:45;35.20;;;15.47;;
18340;SDS011;9296;48.084;16.352;2023-01-28T16:04:22;28.60;;;14.20;;
18340;SDS011;9296;48.084;16.352;2023-01-28T16:06:49;30.20;;;14.67;;
18340;SDS011;9296;48.084;16.352;2023-01-28T16:09:19;34.00;;;15.20;;
18340;SDS011;9296;48.084;16.352;2023-01-28T16:11:48;32.57;;;15.63;;
18340;SDS011;9296;48.084;16.352;2023-01-28T16:23:27;32.67;;;15.10;;
18340;SDS011;9296;48.084;16.352;2023-01-28T16:25:58;35.97;;;15.87;;
18340;SDS011;9296;48.084;16.352;2023-01-28T16:28:25;32.70;;;15.37;;
18340;SDS011;9296;48.084;16.352;2023-01-28T16:30:53;33.33;;;15.87;;
18340;SDS011;9296;48.084;16.352;2023-01-28T16:33:25;32.77;;;16.20;;
18340;SDS011;9296;48.084;16.352;2023-01-28T16:38:40;35.70;;;15.80;;
18340;SDS011;9296;48.084;16.352;2023-01-28T16:41:12;30.73;;;14.33;;